Time;durP1;ratioP1;P1;durP2;ratioP2;P2;SDS_P1;SDS_P2;PMS_P1;PMS_P2;Temp;Humidity;BMP_temperature;BMP_pressure;BME280_temperature;BME280_humidity;BME280_pressure;Samples;Min_cycle;Max_cycle;Signal;HPM_P1;HPM_P2
2021/05/06 00:32:05;;;;;;;1.67;0.93;;;9.40;31.20;;;;;;10468581;28;20897;-71
2021/05/06 00:37:07;;;;;;;1.87;1.20;;;9.20;31.20;;;;;;10469463;28;20639;-71
2021/05/06 00:58:31;;;;;;;1.30;1.20;;;8.90;31.80;;;;;;10476195;28;20252;-71
2021/05/06 01:03:42;;;;;;;1.57;1.00;;;8.80;32.00;;;;;;10468367;28;20304;-71
2021/05/06 01:08:48;;;;;;;1.10;0.93;;;8.80;31.80;;;;;;10480705;28;20224;-71
2021/05/06 01:13:52;;;;;;;1.20;1.10;;;8.80;31.80;;;;;;10476816;28;20224;-71
2021/05/06 01:18:54;;;;;;;2.33;1.10;;;8.80;32.00;;;;;;10472566;28;20250;-71
2021/05/06 01:23:58;;;;;;;1.83;1.10;;;8.70;31.80;;;;;;10481448;28;20251;-71
2021/05/06 01:29:03;;;;;;;1.30;1.00;;;8.80;32.20;;;;;;10461308;28;20256;-71
2021/05/06 01:34:13;;;;;;;1.03;1.00;;;8.80;32.10;;;;;;10475463;28;20805;-71
2021/05/06 01:39:37;;;;;;;1.60;0.93;;;8.80;32.50;;;;;;10478886;28;20777;-71
2021/05/06 02:00:38;;;;;;;1.03;0.90;;;9.00;32.30;;;;;;10471940;28;20255;-71
2021/05/06 02:05:41;;;;;;;1.10;1.00;;;9.00;32.10;;;;;;10490069;28;20230;-71
2021/05/06 02:10:44;;;;;;;1.97;0.90;;;9.10;32.30;;;;;;10472097;28;20229;-71
2021/05/06 02:15:50;;;;;;;0.83;0.83;;;9.20;32.40;;;;;;10470687;28;20232;-71
2021/05/06 02:20:53;;;;;;;1.07;0.97;;;9.30;32.20;;;;;;10459641;28;20297;-71
2021/05/06 02:25:56;;;;;;;1.30;1.00;;;9.40;32.20;;;;;;10482401;28;20224;-71
2021/05/06 02:30:59;;;;;;;1.00;0.83;;;9.40;32.20;;;;;;10472579;28;20256;-71
2021/05/06 02:36:01;;;;;;;0.90;0.90;;;9.50;32.10;;;;;;10476658;28;20239;-71
2021/05/06 02:41:05;;;;;;;1.13;0.83;;;9.50;32.20;;;;;;10479217;28;20580;-72
2021/05/06 02:46:07;;;;;;;1.10;1.00;;;9.60;32.30;;;;;;10474748;28;20315;-72
2021/05/06 02:51:10;;;;;;;1.73;1.07;;;9.60;32.20;;;;;;10478473;28;20299;-72
2021/05/06 02:56:18;;;;;;;1.73;1.00;;;9.60;32.10;;;;;;10470461;28;20281;-72
2021/05/06 03:06:47;;;;;;;1.77;1.13;;;9.60;32.20;;;;;;10468075;28;20255;-71
2021/05/06 03:11:57;;;;;;;0.97;0.90;;;9.70;32.30;;;;;;10464071;28;20252;-72
2021/05/06 03:22:42;;;;;;;1.37;1.10;;;9.80;32.90;;;;;;10475322;28;20250;-72
2021/05/06 03:27:49;;;;;;;0.93;0.93;;;9.80;32.50;;;;;;10476556;28;20240;-72
2021/05/06 03:32:59;;;;;;;2.20;1.20;;;9.80;32.80;;;;;;10482610;28;20278;-72
2021/05/06 03:43:37;;;;;;;3.33;1.10;;;10.00;31.90;;;;;;10486356;28;20700;-72
2021/05/06 04:26:18;;;;;;;1.77;1.50;;;9.80;33.10;;;;;;10481655;28;20720;-72
2021/05/06 04:36:55;;;;;;;1.90;1.30;;;9.60;33.70;;;;;;10468453;28;20752;-72
2021/05/06 05:03:37;;;;;;;2.23;1.10;;;9.50;34.40;;;;;;10479377;27;20542;-69
2021/05/06 05:08:43;;;;;;;2.10;1.33;;;9.60;34.80;;;;;;10453556;28;20286;-69
2021/05/06 05:13:57;;;;;;;3.00;1.50;;;9.70;34.60;;;;;;10458829;28;20776;-70
2021/05/06 05:24:43;;;;;;;3.10;1.60;;;9.80;34.70;;;;;;10378907;28;20283;-71
2021/05/06 05:29:45;;;;;;;2.57;1.40;;;9.90;34.70;;;;;;10453794;28;20315;-70
2021/05/06 05:34:54;;;;;;;1.50;1.40;;;9.90;34.70;;;;;;10458232;28;20236;-70
2021/05/06 05:40:11;;;;;;;2.70;1.73;;;10.00;33.90;;;;;;10452894;28;20225;-70
2021/05/06 05:55:52;;;;;;;4.30;1.73;;;10.30;34.10;;;;;;10451588;28;20304;-70
2021/05/06 06:00:54;;;;;;;2.40;1.57;;;10.30;34.00;;;;;;10458657;28;20324;-70
2021/05/06 06:05:57;;;;;;;3.47;1.50;;;10.40;33.60;;;;;;10458482;28;20228;-70
2021/05/06 06:10:59;;;;;;;2.73;1.70;;;10.40;33.60;;;;;;10448300;28;20308;-70
2021/05/06 06:16:03;;;;;;;3.43;1.70;;;10.50;33.30;;;;;;10426027;28;20251;-68
2021/05/06 06:21:11;;;;;;;3.60;1.70;;;10.50;33.30;;;;;;10422213;28;20734;-69
2021/05/06 06:26:13;;;;;;;2.93;1.63;;;10.60;33.70;;;;;;10430978;28;20221;-70
2021/05/06 06:31:19;;;;;;;2.90;1.80;;;10.60;33.70;;;;;;10407245;28;20233;-70
2021/05/06 06:36:23;;;;;;;2.33;1.70;;;10.70;33.60;;;;;;10382129;28;20234;-70
2021/05/06 06:41:25;;;;;;;3.20;1.80;;;10.80;33.80;;;;;;10383521;28;20711;-70
2021/05/06 06:46:28;;;;;;;2.87;1.50;;;10.90;33.70;;;;;;10383913;28;20313;-70
2021/05/06 06:51:31;;;;;;;3.40;2.07;;;11.00;33.40;;;;;;10388432;28;20230;-70
2021/05/06 06:56:33;;;;;;;3.57;1.70;;;11.20;33.60;;;;;;10386692;28;20253;-70
2021/05/06 07:01:38;;;;;;;3.10;1.63;;;11.30;33.80;;;;;;10387875;28;20230;-70
2021/05/06 07:06:41;;;;;;;3.03;1.50;;;11.50;33.90;;;;;;10384362;28;20261;-70
2021/05/06 07:11:43;;;;;;;1.53;1.23;;;11.60;33.90;;;;;;10381618;28;20250;-70
2021/05/06 07:16:45;;;;;;;3.57;1.60;;;11.80;33.70;;;;;;10381976;28;20345;-70
2021/05/06 07:21:49;;;;;;;2.80;1.37;;;12.00;33.60;;;;;;10389929;28;20511;-70
2021/05/06 07:26:51;;;;;;;2.60;1.50;;;12.10;33.60;;;;;;10400187;28;20253;-70
2021/05/06 07:31:54;;;;;;;2.90;1.50;;;12.20;33.60;;;;;;10423886;28;20244;-70
2021/05/06 07:37:01;;;;;;;2.73;1.60;;;12.30;33.70;;;;;;10430299;28;20229;-71
2021/05/06 07:42:06;;;;;;;2.67;1.70;;;12.50;33.90;;;;;;10427197;28;20221;-70
2021/05/06 07:47:11;;;;;;;2.07;1.73;;;12.70;33.80;;;;;;10424815;28;20235;-71
2021/05/06 07:52:20;;;;;;;3.33;1.77;;;12.90;33.70;;;;;;10427580;28;20798;-70
2021/05/06 07:57:29;;;;;;;3.50;1.70;;;13.10;33.50;;;;;;10423849;28;20228;-70
2021/05/06 08:02:31;;;;;;;2.83;1.70;;;13.30;33.10;;;;;;10423820;28;20317;-71
2021/05/06 08:07:34;;;;;;;2.90;1.70;;;13.40;33.10;;;;;;10426274;28;20912;-70
2021/05/06 08:12:37;;;;;;;2.53;1.70;;;13.40;32.60;;;;;;10424707;28;20217;-70
2021/05/06 08:17:42;;;;;;;3.30;2.20;;;13.40;32.70;;;;;;10422533;28;20217;-70
2021/05/06 08:22:45;;;;;;;3.97;2.23;;;13.40;32.00;;;;;;10425278;28;20741;-70
2021/05/06 08:27:48;;;;;;;4.87;3.40;;;13.30;31.90;;;;;;10411001;28;20283;-70
2021/05/06 08:32:50;;;;;;;3.10;2.23;;;13.20;32.20;;;;;;10417257;28;20654;-70
2021/05/06 08:37:53;;;;;;;3.40;2.00;;;13.20;32.00;;;;;;10421756;28;20233;-70
2021/05/06 08:42:56;;;;;;;3.77;1.67;;;13.30;31.60;;;;;;10420877;28;20286;-70
2021/05/06 08:47:59;;;;;;;3.23;1.60;;;13.30;30.60;;;;;;10419197;28;20225;-70
2021/05/06 08:53:02;;;;;;;3.37;1.60;;;13.30;30.60;;;;;;10419363;28;20728;-68
2021/05/06 08:58:05;;;;;;;3.50;1.60;;;13.40;31.30;;;;;;10422045;28;20221;-69
2021/05/06 09:03:09;;;;;;;2.53;1.50;;;13.50;31.30;;;;;;10416407;28;20238;-69
2021/05/06 09:08:13;;;;;;;3.73;1.60;;;13.60;31.20;;;;;;10414216;28;20234;-69
2021/05/06 09:13:27;;;;;;;2.30;1.90;;;13.70;31.00;;;;;;10417109;28;20313;-70
2021/05/06 09:18:37;;;;;;;2.90;1.77;;;13.80;31.10;;;;;;10419660;28;20685;-70
2021/05/06 09:23:43;;;;;;;3.97;1.97;;;14.00;31.20;;;;;;10417481;28;20320;-70
2021/05/06 09:28:47;;;;;;;4.90;1.70;;;14.20;31.40;;;;;;10417121;28;20308;-70
2021/05/06 09:33:50;;;;;;;4.80;1.80;;;14.40;30.70;;;;;;10417535;28;20249;-69
2021/05/06 09:38:55;;;;;;;4.17;1.50;;;14.50;30.60;;;;;;10422588;28;20639;-69
2021/05/06 09:44:08;;;;;;;1.90;1.60;;;14.60;30.40;;;;;;10418036;28;20237;-70
2021/05/06 09:49:24;;;;;;;4.83;1.70;;;14.70;30.00;;;;;;10426656;28;20316;-70
2021/05/06 09:54:29;;;;;;;3.53;1.80;;;14.80;30.00;;;;;;10422968;28;20319;-69
2021/05/06 09:59:35;;;;;;;3.20;1.73;;;14.90;29.90;;;;;;10422811;28;20308;-70
2021/05/06 10:04:40;;;;;;;2.70;1.70;;;14.90;29.70;;;;;;10425568;28;20316;-70
2021/05/06 10:09:54;;;;;;;3.13;1.70;;;14.90;29.60;;;;;;10401252;28;20325;-70
2021/05/06 10:14:57;;;;;;;5.47;1.60;;;14.90;29.10;;;;;;10384291;28;20223;-70
2021/05/06 10:20:01;;;;;;;3.50;1.60;;;15.00;29.60;;;;;;10387815;28;20619;-71
2021/05/06 10:25:06;;;;;;;3.27;1.60;;;15.00;29.20;;;;;;10397835;28;20220;-70
2021/05/06 10:30:09;;;;;;;2.87;1.53;;;15.00;29.20;;;;;;10389373;28;20248;-70
2021/05/06 10:35:13;;;;;;;3.03;1.63;;;15.00;29.10;;;;;;10414504;28;20316;-69
2021/05/06 10:40:32;;;;;;;5.40;1.70;;;15.00;29.10;;;;;;10433912;28;20317;-70
2021/05/06 10:45:34;;;;;;;2.00;1.40;;;14.90;28.80;;;;;;10438984;28;20225;-70
2021/05/06 10:50:40;;;;;;;3.23;1.50;;;14.90;29.20;;;;;;10437157;28;20753;-69
2021/05/06 10:55:46;;;;;;;2.90;1.80;;;14.90;29.00;;;;;;10437396;28;20245;-70
2021/05/06 11:01:05;;;;;;;3.97;1.73;;;14.90;29.20;;;;;;10418900;28;20222;-69
2021/05/06 11:06:09;;;;;;;4.47;1.57;;;14.90;28.90;;;;;;10419301;28;20686;-69
2021/05/06 11:11:17;;;;;;;3.27;1.70;;;14.90;29.30;;;;;;10424237;28;20271;-69
2021/05/06 11:16:20;;;;;;;4.40;1.73;;;14.80;29.10;;;;;;10423817;22;20317;-72
2021/05/06 11:21:40;;;;;;;2.90;1.57;;;14.80;29.30;;;;;;10452843;28;20232;-72
2021/05/06 11:27:16;;;;;;;3.37;1.50;;;14.60;28.80;;;;;;10453969;28;20724;-72
2021/05/06 11:32:24;;;;;;;2.53;1.60;;;14.50;29.10;;;;;;10397997;28;20233;-70
2021/05/06 11:37:32;;;;;;;2.03;1.60;;;14.40;29.10;;;;;;10449825;28;20228;-71
2021/05/06 11:42:39;;;;;;;3.57;1.90;;;14.40;29.60;;;;;;10438164;28;20229;-70
2021/05/06 11:47:42;;;;;;;2.07;1.43;;;14.40;29.60;;;;;;10449563;28;20642;-71
2021/05/06 11:52:45;;;;;;;3.13;1.60;;;14.40;29.50;;;;;;10447611;28;20240;-71
2021/05/06 11:57:49;;;;;;;2.90;1.33;;;14.40;29.40;;;;;;10446623;28;20231;-70
2021/05/06 12:02:56;;;;;;;2.63;1.40;;;14.40;29.30;;;;;;10448433;28;20320;-70
2021/05/06 12:08:03;;;;;;;2.03;1.60;;;14.40;29.50;;;;;;10450054;28;20225;-70
2021/05/06 12:13:06;;;;;;;2.97;1.47;;;14.40;29.60;;;;;;10449864;28;20256;-71
2021/05/06 12:18:22;;;;;;;2.37;1.70;;;14.40;29.70;;;;;;10449858;28;20263;-71
2021/05/06 12:23:26;;;;;;;2.00;1.10;;;14.40;30.00;;;;;;10450029;28;20224;-70
2021/05/06 12:28:40;;;;;;;3.40;1.33;;;14.50;30.00;;;;;;10449849;28;20709;-70
2021/05/06 12:33:42;;;;;;;2.23;1.37;;;14.50;30.00;;;;;;10449505;28;20233;-70
2021/05/06 12:38:52;;;;;;;4.30;1.50;;;14.60;30.10;;;;;;10441810;28;20666;-71
2021/05/06 12:43:55;;;;;;;2.47;1.53;;;14.50;30.00;;;;;;10448100;28;20261;-71
2021/05/06 12:48:59;;;;;;;7.07;5.70;;;14.60;30.10;;;;;;10438856;28;20268;-71
2021/05/06 12:54:05;;;;;;;3.40;2.07;;;14.50;30.20;;;;;;10467806;28;20271;-71
2021/05/06 12:59:28;;;;;;;2.40;1.70;;;14.60;30.30;;;;;;10448622;28;20236;-71
2021/05/06 13:04:42;;;;;;;1.63;1.40;;;14.60;30.50;;;;;;10449060;28;20235;-70
2021/05/06 13:09:45;;;;;;;1.10;1.00;;;14.50;30.40;;;;;;10444192;28;20583;-71
2021/05/06 13:14:51;;;;;;;1.40;1.30;;;14.40;30.80;;;;;;10446839;28;20259;-71
2021/05/06 13:19:54;;;;;;;1.70;1.40;;;14.40;31.20;;;;;;10428181;28;20307;-71
2021/05/06 13:24:56;;;;;;;1.53;1.27;;;14.30;31.10;;;;;;10425055;28;20229;-71
2021/05/06 13:30:04;;;;;;;2.63;1.40;;;14.30;31.40;;;;;;10454845;28;20220;-71
2021/05/06 13:35:15;;;;;;;2.57;1.67;;;14.20;31.40;;;;;;10452038;28;20698;-71
2021/05/06 13:40:17;;;;;;;5.20;1.70;;;14.20;32.70;;;;;;10445432;28;20242;-70
2021/05/06 13:45:31;;;;;;;2.20;2.00;;;14.20;31.60;;;;;;10454229;28;20278;-70
2021/05/06 13:50:33;;;;;;;3.77;3.20;;;14.10;32.40;;;;;;10461934;28;20258;-70
2021/05/06 13:55:35;;;;;;;3.83;3.10;;;13.90;32.50;;;;;;10446308;28;20646;-69
2021/05/06 14:00:39;;;;;;;2.53;2.00;;;13.80;32.80;;;;;;10454497;28;20290;-69
2021/05/06 14:05:42;;;;;;;2.00;1.60;;;13.70;32.70;;;;;;10454242;28;20306;-70
2021/05/06 14:10:44;;;;;;;1.90;1.70;;;13.60;32.70;;;;;;10448813;28;20324;-68
2021/05/06 14:15:48;;;;;;;1.80;1.70;;;13.50;32.90;;;;;;10446983;28;20286;-70
2021/05/06 14:20:51;;;;;;;1.93;1.77;;;13.30;33.30;;;;;;10447391;28;20221;-69
2021/05/06 14:25:53;;;;;;;2.93;1.60;;;13.30;33.50;;;;;;10440454;28;20239;-70
2021/05/06 14:30:57;;;;;;;2.40;1.47;;;13.40;33.90;;;;;;10462714;28;20583;-70
2021/05/06 14:35:59;;;;;;;3.10;2.80;;;13.30;34.00;;;;;;10449218;28;20220;-69
2021/05/06 14:41:02;;;;;;;3.00;2.30;;;13.30;34.10;;;;;;10446223;28;20324;-72
2021/05/06 14:46:05;;;;;;;2.13;1.70;;;13.30;33.90;;;;;;10452897;28;20221;-71
2021/05/06 14:51:08;;;;;;;3.23;2.10;;;13.30;34.20;;;;;;10455879;28;20268;-72
2021/05/06 14:56:10;;;;;;;2.03;1.83;;;13.30;34.10;;;;;;10455573;28;20236;-71
2021/05/06 15:01:13;;;;;;;3.67;1.80;;;13.30;34.40;;;;;;10455697;28;20228;-71
2021/05/06 15:06:16;;;;;;;3.07;2.03;;;13.30;34.70;;;;;;10452015;28;20256;-71
2021/05/06 15:11:18;;;;;;;2.93;2.10;;;13.30;34.30;;;;;;10455243;28;20243;-72
2021/05/06 15:16:21;;;;;;;3.10;2.10;;;13.30;34.60;;;;;;10453231;28;20233;-71
2021/05/06 15:21:24;;;;;;;3.10;2.10;;;13.30;35.60;;;;;;10434263;28;20225;-75
2021/05/06 15:26:26;;;;;;;2.70;1.83;;;13.20;34.80;;;;;;10449988;28;20240;-75
2021/05/06 15:31:30;;;;;;;2.27;2.07;;;13.30;34.70;;;;;;10453578;28;20309;-75
2021/05/06 15:36:32;;;;;;;3.33;2.97;;;13.30;35.00;;;;;;10484180;28;20689;-75
2021/05/06 15:41:35;;;;;;;4.27;3.87;;;13.20;34.80;;;;;;10409468;28;20230;-75
2021/05/06 15:46:39;;;;;;;5.40;4.40;;;13.20;35.10;;;;;;10408806;28;20238;-76
2021/05/06 15:51:41;;;;;;;6.17;4.60;;;13.30;35.30;;;;;;10409289;28;20253;-76
2021/05/06 15:56:51;;;;;;;3.57;3.10;;;13.20;34.90;;;;;;10409013;28;20237;-76
2021/05/06 16:01:54;;;;;;;4.13;3.53;;;13.20;35.10;;;;;;10408705;28;20265;-75
2021/05/06 16:06:57;;;;;;;3.50;2.80;;;13.10;35.90;;;;;;10408574;28;20280;-76
2021/05/06 16:11:59;;;;;;;2.80;2.60;;;13.10;35.60;;;;;;10408355;28;20320;-75
2021/05/06 16:17:02;;;;;;;3.60;3.30;;;13.00;35.60;;;;;;10407740;28;20959;-76
2021/05/06 16:22:05;;;;;;;3.50;3.20;;;13.10;36.20;;;;;;10407714;28;20241;-76
2021/05/06 16:27:07;;;;;;;3.50;3.20;;;13.00;35.90;;;;;;10408050;28;20261;-76
2021/05/06 16:32:10;;;;;;;6.97;4.50;;;13.00;36.00;;;;;;10407870;28;20229;-76
2021/05/06 16:37:18;;;;;;;6.50;4.27;;;12.90;36.40;;;;;;10407491;28;20776;-76
2021/05/06 16:42:32;;;;;;;5.37;4.10;;;12.90;36.30;;;;;;10407491;28;20234;-76
2021/05/06 16:47:35;;;;;;;7.17;6.47;;;12.90;36.40;;;;;;10416198;28;20237;-74
2021/05/06 16:52:42;;;;;;;5.97;5.30;;;12.90;36.80;;;;;;10437132;28;20256;-73
2021/05/06 16:57:44;;;;;;;24.30;21.77;;;12.90;36.40;;;;;;10449599;28;20229;-74
2021/05/06 17:02:49;;;;;;;13.87;12.20;;;12.90;36.60;;;;;;10449611;28;20316;-74
2021/05/06 17:07:52;;;;;;;6.83;5.63;;;12.90;37.10;;;;;;10447693;28;20245;-74
2021/05/06 17:13:04;;;;;;;6.87;6.03;;;13.00;36.90;;;;;;10436521;28;20241;-74
2021/05/06 17:18:08;;;;;;;5.57;4.90;;;13.00;38.30;;;;;;10438233;28;20225;-74
2021/05/06 17:23:11;;;;;;;5.23;3.73;;;13.00;37.40;;;;;;10432448;28;20264;-74
2021/05/06 17:28:13;;;;;;;9.10;6.97;;;13.00;37.10;;;;;;10445688;28;20760;-74
2021/05/06 17:33:18;;;;;;;5.50;3.50;;;13.00;37.20;;;;;;10447419;28;20317;-74
2021/05/06 17:38:21;;;;;;;7.60;6.07;;;13.00;38.10;;;;;;10455535;28;20258;-74
2021/05/06 17:43:23;;;;;;;8.03;6.50;;;13.00;37.20;;;;;;10462083;28;20788;-74
2021/05/06 17:48:27;;;;;;;3.53;2.67;;;12.90;37.30;;;;;;10419869;28;20906;-74
2021/05/06 17:53:30;;;;;;;5.37;4.90;;;12.90;37.90;;;;;;10466537;28;20330;-74
2021/05/06 17:58:33;;;;;;;3.67;3.17;;;12.80;37.50;;;;;;10441919;28;20308;-74
2021/05/06 18:03:36;;;;;;;3.00;2.80;;;12.80;37.50;;;;;;10446759;28;20233;-74
2021/05/06 18:08:45;;;;;;;3.17;2.80;;;12.80;37.70;;;;;;10441053;28;20244;-74
2021/05/06 18:13:50;;;;;;;3.53;2.97;;;12.70;37.40;;;;;;10415598;28;20229;-74
2021/05/06 18:18:55;;;;;;;2.73;2.50;;;12.60;38.50;;;;;;10424742;28;20259;-74
2021/05/06 18:23:57;;;;;;;4.00;3.60;;;12.60;38.20;;;;;;10450865;28;20252;-75
2021/05/06 18:29:00;;;;;;;2.80;2.50;;;12.60;38.00;;;;;;10453251;28;20295;-74
2021/05/06 18:34:04;;;;;;;3.23;2.23;;;12.50;37.90;;;;;;10459870;28;20289;-74
2021/05/06 18:39:07;;;;;;;2.50;2.30;;;12.50;38.90;;;;;;10476516;28;20225;-74
2021/05/06 18:44:15;;;;;;;2.80;2.50;;;12.50;38.30;;;;;;10449876;28;20233;-75
2021/05/06 18:49:18;;;;;;;2.77;2.53;;;12.40;38.60;;;;;;10448841;28;20235;-73
2021/05/06 18:54:21;;;;;;;3.37;3.07;;;12.40;38.90;;;;;;10448167;28;20706;-73
2021/05/06 18:59:23;;;;;;;3.53;2.67;;;12.30;38.70;;;;;;10446654;28;20774;-73
2021/05/06 19:04:26;;;;;;;3.73;2.80;;;12.30;38.80;;;;;;10451639;28;20692;-73
2021/05/06 19:09:29;;;;;;;2.93;2.43;;;12.20;39.30;;;;;;10456493;28;20307;-73
2021/05/06 19:14:31;;;;;;;2.73;2.40;;;12.20;39.10;;;;;;10430062;28;20256;-74
2021/05/06 19:19:34;;;;;;;3.47;2.33;;;12.20;39.10;;;;;;10445038;28;20252;-73
2021/05/06 19:24:36;;;;;;;2.93;2.50;;;12.20;39.60;;;;;;10453264;28;20235;-73
2021/05/06 19:29:39;;;;;;;4.03;2.60;;;12.20;39.40;;;;;;10446037;28;20592;-74
2021/05/06 19:34:42;;;;;;;2.87;2.63;;;12.20;40.10;;;;;;10447912;28;20229;-74
2021/05/06 19:39:44;;;;;;;4.07;2.80;;;12.10;40.10;;;;;;10452723;28;20237;-73
2021/05/06 19:44:50;;;;;;;2.87;2.60;;;12.20;40.10;;;;;;10448738;28;20764;-74
2021/05/06 19:49:53;;;;;;;2.57;2.37;;;12.20;40.30;;;;;;10443753;28;20315;-73
2021/05/06 19:54:56;;;;;;;2.80;2.60;;;12.10;40.30;;;;;;10450010;28;20693;-74
2021/05/06 19:59:58;;;;;;;2.53;2.33;;;12.10;40.50;;;;;;10450216;28;20332;-73
2021/05/06 20:05:01;;;;;;;2.63;2.07;;;12.10;40.70;;;;;;10445456;28;20233;-73
2021/05/06 20:10:05;;;;;;;2.07;1.87;;;12.10;41.20;;;;;;10442920;28;20234;-73
2021/05/06 20:15:10;;;;;;;2.23;2.03;;;12.10;40.80;;;;;;10453489;28;20650;-74
2021/05/06 20:20:19;;;;;;;1.90;1.60;;;12.10;41.00;;;;;;10447528;28;20256;-73
2021/05/06 20:25:21;;;;;;;2.70;1.83;;;12.10;41.20;;;;;;10445679;28;20645;-73
2021/05/06 20:30:24;;;;;;;2.43;1.77;;;12.20;40.90;;;;;;10460804;28;20275;-73
2021/05/06 20:35:28;;;;;;;1.83;1.73;;;12.20;41.20;;;;;;10442697;28;20232;-74
2021/05/06 20:40:31;;;;;;;2.07;1.60;;;12.20;41.80;;;;;;10454190;28;20248;-73
2021/05/06 20:45:33;;;;;;;1.90;1.80;;;12.20;41.30;;;;;;10444494;28;20295;-74
2021/05/06 20:50:36;;;;;;;2.93;1.90;;;12.20;41.30;;;;;;10436761;28;20221;-73
2021/05/06 20:55:39;;;;;;;1.90;1.80;;;12.20;41.90;;;;;;10458690;28;20317;-73
2021/05/06 21:00:41;;;;;;;2.57;2.37;;;12.20;41.40;;;;;;10441255;28;20236;-73
2021/05/06 21:05:47;;;;;;;1.80;1.70;;;12.20;41.70;;;;;;10453803;28;20305;-73
2021/05/06 21:10:49;;;;;;;2.00;1.90;;;12.20;41.90;;;;;;10446585;28;20220;-73
2021/05/06 21:15:51;;;;;;;3.07;2.00;;;12.10;41.60;;;;;;10458187;28;20233;-73
2021/05/06 21:20:55;;;;;;;1.90;1.80;;;12.10;41.80;;;;;;10446447;28;20597;-73
2021/05/06 21:25:57;;;;;;;2.03;1.80;;;12.10;41.80;;;;;;10445957;28;20239;-73
2021/05/06 21:31:00;;;;;;;2.50;2.30;;;12.10;41.80;;;;;;10439288;28;20228;-73
2021/05/06 21:36:04;;;;;;;2.63;2.10;;;12.10;42.50;;;;;;10448808;28;20312;-73
2021/05/06 21:41:07;;;;;;;2.87;2.50;;;12.00;41.70;;;;;;10446572;28;20228;-73
2021/05/06 21:46:09;;;;;;;2.37;2.17;;;12.10;41.80;;;;;;10445832;28;20981;-73
2021/05/06 21:51:12;;;;;;;2.80;1.80;;;12.10;41.80;;;;;;10457098;28;20287;-73
2021/05/06 21:56:15;;;;;;;1.70;1.40;;;12.10;41.80;;;;;;10468107;28;20235;-73
2021/05/06 22:01:18;;;;;;;1.00;1.00;;;12.20;41.90;;;;;;10453989;28;20643;-73
2021/05/06 22:06:21;;;;;;;0.80;0.80;;;12.20;41.90;;;;;;10455193;28;20260;-73
2021/05/06 22:11:24;;;;;;;0.70;0.70;;;12.30;42.00;;;;;;10459052;28;20235;-73
2021/05/06 22:16:26;;;;;;;0.50;0.50;;;12.30;42.00;;;;;;10456579;28;20296;-73
2021/05/06 22:21:30;;;;;;;0.50;0.50;;;12.40;42.00;;;;;;10457961;28;20252;-72
2021/05/06 22:26:32;;;;;;;0.70;0.70;;;12.40;42.00;;;;;;10438369;28;20843;-73
2021/05/06 22:31:35;;;;;;;0.50;0.50;;;12.50;42.10;;;;;;10447978;28;20690;-73
2021/05/06 22:36:40;;;;;;;0.60;0.60;;;12.50;42.10;;;;;;10446215;28;20224;-73
2021/05/06 22:41:42;;;;;;;0.70;0.60;;;12.60;42.20;;;;;;10450094;28;20239;-73
2021/05/06 22:46:44;;;;;;;0.50;0.50;;;12.60;42.20;;;;;;10455712;28;20264;-73
2021/05/06 22:51:47;;;;;;;0.50;0.50;;;12.70;42.30;;;;;;10448864;28;20321;-72
2021/05/06 22:56:49;;;;;;;0.50;0.50;;;12.70;42.30;;;;;;10449536;28;20253;-73
2021/05/06 23:01:52;;;;;;;1.03;0.50;;;12.70;42.30;;;;;;10458344;28;20829;-72
2021/05/06 23:06:55;;;;;;;0.60;0.60;;;12.70;42.30;;;;;;10436786;28;21019;-72
2021/05/06 23:11:57;;;;;;;0.67;0.50;;;12.80;43.10;;;;;;10449023;28;20235;-72
2021/05/06 23:17:00;;;;;;;0.77;0.60;;;12.80;42.40;;;;;;10459980;28;20244;-73
2021/05/06 23:22:03;;;;;;;1.00;0.70;;;12.80;42.40;;;;;;10456769;28;20286;-72
2021/05/06 23:27:07;;;;;;;1.23;0.50;;;12.80;42.40;;;;;;10459452;28;20245;-72
2021/05/06 23:32:09;;;;;;;0.77;0.50;;;12.80;42.40;;;;;;10454404;28;20764;-72
2021/05/06 23:37:13;;;;;;;1.77;0.70;;;12.90;42.10;;;;;;10457032;28;20591;-73
2021/05/06 23:42:15;;;;;;;0.83;0.70;;;12.90;42.50;;;;;;10453381;28;20235;-72
2021/05/06 23:47:18;;;;;;;1.10;0.70;;;12.90;42.00;;;;;;10450205;28;20608;-73
2021/05/06 23:52:21;;;;;;;2.23;0.70;;;12.90;42.00;;;;;;10454876;28;20244;-73
2021/05/06 23:57:25;;;;;;;0.80;0.60;;;12.90;42.40;;;;;;10456008;28;20220;-73
